Time;durP1;ratioP1;P1;durP2;ratioP2;P2;SDS_P1;SDS_P2;PMS_P1;PMS_P2;Temp;Humidity;BMP_temperature;BMP_pressure;BME280_temperature;BME280_humidity;BME280_pressure;Samples;Min_cycle;Max_cycle;Signal;HPM_P1;HPM_P2
2022/12/06 05:31:50;;;;;;;;;43.00;34.75;;;;;;;;4962858;24;45361;-66
2022/12/06 05:34:16;;;;;;;;;44.50;35.50;;;;;;;;4699487;30;45722;-66
2022/12/06 05:36:43;;;;;;;;;44.25;35.25;;;;;;;;4679335;30;46823;-66
2022/12/06 05:39:08;;;;;;;;;44.25;34.00;;;;;;;;4698404;30;45504;-66
2022/12/06 05:41:34;;;;;;;;;43.50;34.00;;;;;;;;4694316;30;45480;-65
2022/12/06 05:43:59;;;;;;;;;42.50;35.50;;;;;;;;4700269;30;45359;-66
2022/12/06 05:46:24;;;;;;;;;45.50;34.50;;;;;;;;4696874;30;46020;-66
2022/12/06 05:48:49;;;;;;;;;54.50;37.00;;;;;;;;4701146;30;45563;-66
2022/12/06 05:51:14;;;;;;;;;51.25;38.00;;;;;;;;4701960;30;45357;-66
2022/12/06 05:53:40;;;;;;;;;50.75;35.25;;;;;;;;4700634;30;45321;-66
2022/12/06 05:56:07;;;;;;;;;42.00;37.50;;;;;;;;4701158;30;45436;-66
2022/12/06 05:58:32;;;;;;;;;43.25;35.75;;;;;;;;4698069;30;45415;-66
2022/12/06 06:00:57;;;;;;;;;37.75;34.00;;;;;;;;4701132;30;45368;-66
2022/12/06 06:03:23;;;;;;;;;42.00;33.25;;;;;;;;4700001;30;45230;-66
2022/12/06 06:05:49;;;;;;;;;52.50;37.50;;;;;;;;4699173;30;46094;-66
2022/12/06 06:08:15;;;;;;;;;53.25;38.50;;;;;;;;4699971;30;45679;-66
2022/12/06 06:10:41;;;;;;;;;56.25;41.50;;;;;;;;4705226;30;45466;-66
2022/12/06 06:13:06;;;;;;;;;55.25;37.50;;;;;;;;4695067;30;45295;-66
2022/12/06 06:15:31;;;;;;;;;39.75;35.50;;;;;;;;4689349;30;46325;-66
2022/12/06 06:17:56;;;;;;;;;50.00;37.25;;;;;;;;4696989;30;45298;-66
2022/12/06 06:20:21;;;;;;;;;47.50;36.75;;;;;;;;4697129;30;45377;-66
2022/12/06 06:22:47;;;;;;;;;41.25;34.75;;;;;;;;4699710;30;45610;-66
2022/12/06 06:25:12;;;;;;;;;44.25;31.75;;;;;;;;4697901;30;45366;-66
2022/12/06 06:27:37;;;;;;;;;38.00;33.75;;;;;;;;4688018;30;45743;-67
2022/12/06 06:30:07;;;;;;;;;53.25;37.75;;;;;;;;4701389;30;45665;-66
2022/12/06 06:32:33;;;;;;;;;55.25;45.50;;;;;;;;4697769;30;45486;-66
2022/12/06 06:34:58;;;;;;;;;50.25;39.00;;;;;;;;4697522;30;46352;-67
2022/12/06 06:37:23;;;;;;;;;47.50;37.75;;;;;;;;4700760;30;45733;-67
2022/12/06 06:39:48;;;;;;;;;46.50;37.25;;;;;;;;4699979;30;45534;-67
2022/12/06 06:42:14;;;;;;;;;45.50;37.50;;;;;;;;4699182;30;45431;-67
2022/12/06 06:44:39;;;;;;;;;49.25;38.00;;;;;;;;4700856;30;46863;-67
2022/12/06 06:47:04;;;;;;;;;43.25;34.75;;;;;;;;4703558;30;45427;-67
2022/12/06 06:49:30;;;;;;;;;50.25;36.75;;;;;;;;4703064;30;45449;-67
2022/12/06 06:51:55;;;;;;;;;44.50;37.00;;;;;;;;4703637;30;45448;-67
2022/12/06 06:54:20;;;;;;;;;54.00;37.50;;;;;;;;4702606;30;45518;-67
2022/12/06 06:56:45;;;;;;;;;52.25;40.00;;;;;;;;4703821;30;45317;-67
2022/12/06 06:59:10;;;;;;;;;47.50;38.00;;;;;;;;4701223;30;45565;-67
2022/12/06 07:01:37;;;;;;;;;49.75;37.50;;;;;;;;4699337;30;45491;-64
2022/12/06 07:04:02;;;;;;;;;54.00;42.00;;;;;;;;4697669;30;45544;-64
2022/12/06 07:06:27;;;;;;;;;54.75;38.25;;;;;;;;4700741;30;45510;-64
2022/12/06 07:08:52;;;;;;;;;54.75;42.00;;;;;;;;4704297;30;45408;-62
2022/12/06 07:11:17;;;;;;;;;57.25;38.75;;;;;;;;4702768;30;45382;-68
2022/12/06 07:13:44;;;;;;;;;52.00;38.75;;;;;;;;4701890;30;47855;-63
2022/12/06 07:16:13;;;;;;;;;51.50;39.25;;;;;;;;4699651;30;45487;-64
2022/12/06 07:18:39;;;;;;;;;50.00;39.50;;;;;;;;4702432;30;45625;-63
2022/12/06 07:21:05;;;;;;;;;50.50;39.00;;;;;;;;4703635;30;45396;-64
2022/12/06 07:23:34;;;;;;;;;59.50;42.50;;;;;;;;4700230;30;46225;-64
2022/12/06 07:26:00;;;;;;;;;52.75;40.25;;;;;;;;4700116;30;45646;-64
2022/12/06 07:28:26;;;;;;;;;53.00;39.75;;;;;;;;4703834;30;45508;-64
2022/12/06 07:30:51;;;;;;;;;50.75;41.75;;;;;;;;4703097;30;45591;-64
2022/12/06 07:33:16;;;;;;;;;58.00;41.50;;;;;;;;4703286;30;45229;-64
2022/12/06 07:35:41;;;;;;;;;55.25;41.00;;;;;;;;4702792;30;45409;-65
2022/12/06 07:38:06;;;;;;;;;49.25;37.75;;;;;;;;4699843;30;45664;-63
2022/12/06 07:40:31;;;;;;;;;59.00;41.25;;;;;;;;4701020;30;45309;-63
2022/12/06 07:45:41;;;;;;;;;51.50;42.00;;;;;;;;4700193;30;45414;-63
2022/12/06 07:48:06;;;;;;;;;55.25;41.50;;;;;;;;4696064;30;45226;-64
2022/12/06 07:50:32;;;;;;;;;40.75;35.75;;;;;;;;4701703;30;45669;-66
2022/12/06 07:52:57;;;;;;;;;56.50;43.50;;;;;;;;4697562;30;48432;-69
2022/12/06 07:55:22;;;;;;;;;49.25;34.75;;;;;;;;4701197;30;45280;-69
2022/12/06 07:57:47;;;;;;;;;57.75;36.25;;;;;;;;4702619;30;45401;-69
2022/12/06 08:00:14;;;;;;;;;51.00;39.00;;;;;;;;4696270;30;45405;-70
2022/12/06 08:02:40;;;;;;;;;50.00;40.00;;;;;;;;4694232;30;46112;-69
2022/12/06 08:05:06;;;;;;;;;53.75;40.75;;;;;;;;4700307;30;45440;-69
2022/12/06 08:07:31;;;;;;;;;45.50;37.25;;;;;;;;4702832;30;45343;-69
2022/12/06 08:09:56;;;;;;;;;52.25;38.75;;;;;;;;4697479;30;45420;-69
2022/12/06 08:12:22;;;;;;;;;50.00;38.00;;;;;;;;4698610;30;45558;-69
2022/12/06 08:14:47;;;;;;;;;58.00;42.00;;;;;;;;4702902;30;45270;-69
2022/12/06 08:17:13;;;;;;;;;54.50;42.00;;;;;;;;4701616;30;45297;-69
2022/12/06 08:19:38;;;;;;;;;59.50;40.75;;;;;;;;4701736;30;45388;-69
2022/12/06 08:22:03;;;;;;;;;54.00;40.25;;;;;;;;4702636;30;45462;-69
2022/12/06 08:24:29;;;;;;;;;49.25;39.75;;;;;;;;4702175;30;45453;-69
2022/12/06 08:26:54;;;;;;;;;55.50;42.25;;;;;;;;4703290;30;45277;-69
2022/12/06 08:29:19;;;;;;;;;56.75;42.25;;;;;;;;4702584;30;45355;-69
2022/12/06 08:31:44;;;;;;;;;53.50;42.50;;;;;;;;4701928;30;45475;-69
2022/12/06 08:34:10;;;;;;;;;52.00;40.50;;;;;;;;4702952;30;45389;-71
2022/12/06 08:36:37;;;;;;;;;54.25;43.00;;;;;;;;4702910;30;45371;-71
2022/12/06 08:39:02;;;;;;;;;53.25;42.50;;;;;;;;4703169;30;45274;-71
2022/12/06 08:44:12;;;;;;;;;58.50;43.50;;;;;;;;4698511;30;47152;-71
2022/12/06 08:46:38;;;;;;;;;52.50;38.25;;;;;;;;4702171;30;45294;-71
2022/12/06 08:49:03;;;;;;;;;65.00;45.50;;;;;;;;4701290;30;45461;-71
2022/12/06 08:51:29;;;;;;;;;59.00;44.25;;;;;;;;4701588;30;45972;-71
2022/12/06 08:53:55;;;;;;;;;54.50;40.75;;;;;;;;4700778;30;45563;-71
2022/12/06 08:56:20;;;;;;;;;53.25;39.25;;;;;;;;4702300;30;45228;-71
2022/12/06 08:58:46;;;;;;;;;55.25;41.50;;;;;;;;4704347;30;45344;-71
2022/12/06 09:01:22;;;;;;;;;52.75;42.75;;;;;;;;4701839;30;46102;-71
2022/12/06 09:03:47;;;;;;;;;58.25;41.75;;;;;;;;4702206;30;45455;-71
2022/12/06 09:06:12;;;;;;;;;56.25;40.25;;;;;;;;4702591;30;45437;-71
2022/12/06 09:08:38;;;;;;;;;58.50;45.50;;;;;;;;4698199;30;45447;-71
2022/12/06 09:11:04;;;;;;;;;60.50;45.00;;;;;;;;4701283;30;45595;-71
2022/12/06 09:13:29;;;;;;;;;52.75;43.00;;;;;;;;4702271;30;45466;-71
2022/12/06 09:15:54;;;;;;;;;58.00;41.50;;;;;;;;4702647;30;45558;-71
2022/12/06 09:18:20;;;;;;;;;51.25;39.00;;;;;;;;4702211;30;45462;-71
2022/12/06 09:20:45;;;;;;;;;59.75;43.50;;;;;;;;4702412;30;46533;-71
2022/12/06 09:23:10;;;;;;;;;51.25;39.75;;;;;;;;4701824;30;45651;-72
2022/12/06 09:25:35;;;;;;;;;63.75;42.75;;;;;;;;4702198;30;45484;-71
2022/12/06 09:28:01;;;;;;;;;58.00;45.25;;;;;;;;4701847;30;45378;-71
2022/12/06 09:30:27;;;;;;;;;58.25;44.25;;;;;;;;4699248;30;47511;-71
2022/12/06 09:32:52;;;;;;;;;50.25;41.25;;;;;;;;4701718;30;45235;-71
2022/12/06 09:35:17;;;;;;;;;56.25;43.00;;;;;;;;4701972;30;45400;-70
2022/12/06 09:37:43;;;;;;;;;58.25;42.75;;;;;;;;4702508;30;45409;-71
2022/12/06 09:40:14;;;;;;;;;60.25;44.25;;;;;;;;4702352;30;45146;-71
2022/12/06 09:43:02;;;;;;;;;58.25;42.25;;;;;;;;4701433;30;45328;-70
2022/12/06 09:45:40;;;;;;;;;62.25;43.25;;;;;;;;4686233;30;45353;-71
2022/12/06 09:48:24;;;;;;;;;57.00;39.50;;;;;;;;4700545;30;45297;-71
2022/12/06 09:51:01;;;;;;;;;62.75;44.75;;;;;;;;4700949;30;45319;-71
2022/12/06 09:53:42;;;;;;;;;48.50;40.50;;;;;;;;4696437;30;45419;-71
2022/12/06 09:56:26;;;;;;;;;59.75;41.00;;;;;;;;4701913;30;45381;-71
2022/12/06 09:59:06;;;;;;;;;58.25;45.00;;;;;;;;4701836;30;45463;-71
2022/12/06 10:01:40;;;;;;;;;56.00;42.00;;;;;;;;4694227;30;45388;-71
2022/12/06 10:04:11;;;;;;;;;46.25;37.25;;;;;;;;4701982;30;45232;-72
2022/12/06 10:06:41;;;;;;;;;63.00;43.75;;;;;;;;4701707;30;45232;-71
2022/12/06 10:09:09;;;;;;;;;61.25;41.50;;;;;;;;4698913;30;45477;-71
2022/12/06 10:11:34;;;;;;;;;58.25;42.75;;;;;;;;4700723;30;45344;-71
2022/12/06 10:14:09;;;;;;;;;59.50;44.50;;;;;;;;4699897;30;45345;-71
2022/12/06 10:16:37;;;;;;;;;59.00;44.00;;;;;;;;4701140;30;45451;-71
2022/12/06 10:19:12;;;;;;;;;60.75;45.50;;;;;;;;4694479;30;45329;-71
2022/12/06 10:21:37;;;;;;;;;50.25;39.00;;;;;;;;4703295;30;45553;-71
2022/12/06 10:24:02;;;;;;;;;64.00;46.25;;;;;;;;4685023;30;45316;-71
2022/12/06 10:26:33;;;;;;;;;58.50;44.25;;;;;;;;4701809;30;45684;-71
2022/12/06 10:29:07;;;;;;;;;64.75;44.25;;;;;;;;4702333;30;45463;-71
2022/12/06 10:31:51;;;;;;;;;59.25;44.25;;;;;;;;4703457;30;45850;-71
2022/12/06 10:34:21;;;;;;;;;56.25;41.75;;;;;;;;4704279;30;45416;-71
2022/12/06 10:36:46;;;;;;;;;62.00;47.50;;;;;;;;4703359;30;45242;-71
2022/12/06 10:39:41;;;;;;;;;60.75;45.50;;;;;;;;4702026;30;45348;-71
2022/12/06 10:42:25;;;;;;;;;63.00;44.25;;;;;;;;4621348;30;45434;-71
2022/12/06 10:44:54;;;;;;;;;58.75;46.50;;;;;;;;4701424;30;45578;-71
2022/12/06 10:47:22;;;;;;;;;56.50;43.75;;;;;;;;4704237;30;45354;-71
2022/12/06 10:49:51;;;;;;;;;64.75;45.75;;;;;;;;4700048;30;45285;-71
2022/12/06 10:52:23;;;;;;;;;64.75;46.75;;;;;;;;4699557;30;46954;-71
2022/12/06 10:55:03;;;;;;;;;58.50;47.00;;;;;;;;4705303;30;45562;-71
2022/12/06 10:57:28;;;;;;;;;58.25;43.25;;;;;;;;4705554;30;45664;-71
2022/12/06 11:00:00;;;;;;;;;56.50;44.50;;;;;;;;4702336;30;45491;-71
2022/12/06 11:02:29;;;;;;;;;60.25;46.75;;;;;;;;4703260;30;45476;-71
2022/12/06 11:04:58;;;;;;;;;66.50;49.00;;;;;;;;4703622;30;45326;-71
2022/12/06 11:07:26;;;;;;;;;61.50;45.00;;;;;;;;4703357;30;45383;-71
2022/12/06 11:09:55;;;;;;;;;59.50;45.25;;;;;;;;4701814;30;45253;-71
2022/12/06 11:12:28;;;;;;;;;67.50;49.75;;;;;;;;4701035;30;47026;-71
2022/12/06 11:15:01;;;;;;;;;60.00;44.50;;;;;;;;4704080;30;45400;-71
2022/12/06 11:17:28;;;;;;;;;69.00;48.25;;;;;;;;4701569;30;45337;-71
2022/12/06 11:19:58;;;;;;;;;65.25;47.50;;;;;;;;4704205;30;45744;-71
2022/12/06 11:22:26;;;;;;;;;63.00;47.50;;;;;;;;4702564;30;45309;-71
2022/12/06 11:25:14;;;;;;;;;67.50;46.75;;;;;;;;4703368;30;45450;-71
2022/12/06 11:27:45;;;;;;;;;64.50;45.25;;;;;;;;4691172;30;45275;-71
2022/12/06 11:30:15;;;;;;;;;64.75;49.75;;;;;;;;4702824;30;45406;-71
2022/12/06 11:32:41;;;;;;;;;65.00;48.00;;;;;;;;4704734;30;46086;-71
2022/12/06 11:35:11;;;;;;;;;71.25;48.00;;;;;;;;4704011;30;45472;-72
2022/12/06 11:37:36;;;;;;;;;62.00;46.50;;;;;;;;4703843;30;45389;-71
2022/12/06 11:40:06;;;;;;;;;63.00;49.00;;;;;;;;4703974;30;45226;-73
2022/12/06 11:42:31;;;;;;;;;67.75;51.25;;;;;;;;4702742;30;45480;-72
2022/12/06 11:45:00;;;;;;;;;66.00;47.00;;;;;;;;4703650;30;45649;-72
2022/12/06 11:47:25;;;;;;;;;62.00;48.50;;;;;;;;4702464;30;45424;-71
2022/12/06 11:49:52;;;;;;;;;69.25;49.25;;;;;;;;4702152;30;45633;-71
2022/12/06 11:52:24;;;;;;;;;64.25;49.00;;;;;;;;4702644;30;45330;-71
2022/12/06 11:54:55;;;;;;;;;68.00;50.75;;;;;;;;4701812;30;45456;-72
2022/12/06 11:57:23;;;;;;;;;74.50;51.00;;;;;;;;4704331;30;45307;-71
2022/12/06 12:00:08;;;;;;;;;60.25;43.50;;;;;;;;4709330;30;45660;-71
2022/12/06 12:02:34;;;;;;;;;62.25;48.00;;;;;;;;4700051;30;46229;-72
2022/12/06 12:05:18;;;;;;;;;54.25;44.75;;;;;;;;4702902;30;45360;-71
2022/12/06 12:07:47;;;;;;;;;64.25;50.25;;;;;;;;4708439;30;45481;-71
2022/12/06 12:10:24;;;;;;;;;71.00;46.75;;;;;;;;4686486;30;45322;-71
2022/12/06 12:15:34;;;;;;;;;67.50;48.75;;;;;;;;4702847;30;45361;-72
2022/12/06 12:18:00;;;;;;;;;66.00;48.00;;;;;;;;4707299;30;45455;-71
2022/12/06 12:20:43;;;;;;;;;61.25;48.50;;;;;;;;4700734;30;46344;-72
2022/12/06 12:23:20;;;;;;;;;64.25;48.00;;;;;;;;4702561;30;46209;-72
2022/12/06 12:25:59;;;;;;;;;67.00;51.00;;;;;;;;4700566;30;45300;-72
2022/12/06 12:28:29;;;;;;;;;68.00;50.00;;;;;;;;4709727;30;45375;-71
2022/12/06 12:30:55;;;;;;;;;69.00;51.75;;;;;;;;4703060;30;45324;-72
2022/12/06 12:33:22;;;;;;;;;65.00;49.25;;;;;;;;4701837;30;45688;-72
2022/12/06 12:35:49;;;;;;;;;71.25;48.50;;;;;;;;4703018;30;45388;-72
2022/12/06 12:38:17;;;;;;;;;65.75;49.00;;;;;;;;4702732;30;45440;-71
2022/12/06 12:40:50;;;;;;;;;64.00;48.25;;;;;;;;4702230;30;45407;-70
2022/12/06 12:43:18;;;;;;;;;69.50;47.25;;;;;;;;4699970;30;46247;-70
2022/12/06 12:46:02;;;;;;;;;73.25;51.25;;;;;;;;4702692;30;45331;-72
2022/12/06 12:48:27;;;;;;;;;70.75;52.00;;;;;;;;4700206;30;45389;-70
2022/12/06 12:50:54;;;;;;;;;70.75;52.00;;;;;;;;4702930;30;45376;-71
2022/12/06 12:53:39;;;;;;;;;70.75;51.00;;;;;;;;4701971;30;46127;-71
2022/12/06 12:56:10;;;;;;;;;57.75;46.00;;;;;;;;4702681;30;45317;-72
2022/12/06 12:58:36;;;;;;;;;69.50;50.00;;;;;;;;4703877;30;45321;-72
2022/12/06 13:01:18;;;;;;;;;58.75;45.25;;;;;;;;4702191;30;45318;-72
2022/12/06 13:03:44;;;;;;;;;67.25;49.50;;;;;;;;4700528;30;47391;-72
2022/12/06 13:06:25;;;;;;;;;63.25;47.50;;;;;;;;4702609;30;45392;-72
2022/12/06 13:08:50;;;;;;;;;58.50;44.00;;;;;;;;4699409;30;45446;-72
2022/12/06 13:11:15;;;;;;;;;62.75;44.75;;;;;;;;4702244;30;45595;-72
2022/12/06 13:13:43;;;;;;;;;68.00;49.00;;;;;;;;4701963;30;45538;-72
2022/12/06 13:16:11;;;;;;;;;66.50;51.75;;;;;;;;4701912;30;45435;-72
2022/12/06 13:18:54;;;;;;;;;72.25;52.00;;;;;;;;4700780;30;45359;-72
2022/12/06 13:21:22;;;;;;;;;60.25;49.00;;;;;;;;4702181;30;45540;-72
2022/12/06 13:23:52;;;;;;;;;60.00;46.00;;;;;;;;4700994;30;46355;-72
2022/12/06 13:26:37;;;;;;;;;69.00;52.00;;;;;;;;4701920;30;45460;-71
2022/12/06 13:29:11;;;;;;;;;74.75;52.00;;;;;;;;4690038;30;45556;-72
2022/12/06 13:31:38;;;;;;;;;68.00;51.50;;;;;;;;4699371;30;45403;-72
2022/12/06 13:34:17;;;;;;;;;57.00;46.25;;;;;;;;4697393;30;46352;-72
2022/12/06 13:36:45;;;;;;;;;55.50;42.75;;;;;;;;4702513;30;45471;-72
2022/12/06 13:39:29;;;;;;;;;54.50;43.25;;;;;;;;4702525;30;45390;-72
2022/12/06 13:44:40;;;;;;;;;50.50;35.75;;;;;;;;4700950;30;45501;-71
2022/12/06 13:47:35;;;;;;;;;46.00;35.75;;;;;;;;4700666;30;45377;-70
2022/12/06 13:50:23;;;;;;;;;48.33;36.00;;;;;;;;4686290;30;45534;-70
2022/12/06 13:52:48;;;;;;;;;39.67;33.67;;;;;;;;4697119;30;45346;-71
2022/12/06 13:55:22;;;;;;;;;38.00;33.00;;;;;;;;4695082;30;46266;-71
2022/12/06 13:57:47;;;;;;;;;38.33;32.67;;;;;;;;4702233;30;45464;-72
2022/12/06 14:00:28;;;;;;;;;31.67;30.67;;;;;;;;4700972;30;45626;-72
2022/12/06 14:03:13;;;;;;;;;37.33;33.33;;;;;;;;4699810;30;45262;-72
2022/12/06 14:05:57;;;;;;;;;38.33;28.00;;;;;;;;4699998;30;45407;-72
2022/12/06 14:08:29;;;;;;;;;38.00;30.67;;;;;;;;4694986;30;45313;-72
2022/12/06 14:11:24;;;;;;;;;29.00;26.67;;;;;;;;4699847;30;45465;-71
2022/12/06 14:13:57;;;;;;;;;28.67;28.00;;;;;;;;4678075;30;45496;-72
2022/12/06 14:16:31;;;;;;;;;33.67;29.00;;;;;;;;4700118;30;45518;-72
2022/12/06 14:18:56;;;;;;;;;31.67;29.33;;;;;;;;4700103;30;45439;-72
2022/12/06 14:21:25;;;;;;;;;37.00;28.67;;;;;;;;4704588;30;45512;-72
2022/12/06 14:23:50;;;;;;;;;45.50;36.00;;;;;;;;4697808;30;45636;-72
2022/12/06 14:26:29;;;;;;;;;44.00;38.00;;;;;;;;4699220;30;46111;-71
2022/12/06 14:28:57;;;;;;;;;46.25;37.75;;;;;;;;4693977;30;45355;-71
2022/12/06 14:31:27;;;;;;;;;45.00;37.00;;;;;;;;4695736;30;45480;-71
2022/12/06 14:33:53;;;;;;;;;50.75;40.75;;;;;;;;4695533;30;45595;-70
2022/12/06 14:36:47;;;;;;;;;33.67;28.67;;;;;;;;4699364;30;46276;-69
2022/12/06 14:39:16;;;;;;;;;38.67;33.00;;;;;;;;4680695;30;45586;-71
2022/12/06 14:44:33;;;;;;;;;35.67;31.00;;;;;;;;4694446;30;45682;-70
2022/12/06 14:46:58;;;;;;;;;32.67;30.67;;;;;;;;4692236;30;46119;-71
2022/12/06 14:52:20;;;;;;;;;37.67;31.33;;;;;;;;4698008;30;45558;-71
2022/12/06 14:54:45;;;;;;;;;35.00;28.00;;;;;;;;4695033;30;45483;-71
2022/12/06 14:57:19;;;;;;;;;39.33;27.67;;;;;;;;4695828;30;46324;-71
2022/12/06 14:59:45;;;;;;;;;36.33;30.00;;;;;;;;4690141;30;45823;-71
2022/12/06 15:02:24;;;;;;;;;41.33;33.00;;;;;;;;4697308;30;45358;-72
2022/12/06 15:04:50;;;;;;;;;33.33;32.33;;;;;;;;4699402;30;45513;-70
2022/12/06 15:07:29;;;;;;;;;40.67;31.67;;;;;;;;4700325;30;46243;-72
2022/12/06 15:09:54;;;;;;;;;31.00;28.33;;;;;;;;4704193;30;45468;-71
2022/12/06 15:15:25;;;;;;;;;37.33;24.67;;;;;;;;4701405;30;45408;-72
2022/12/06 15:17:50;;;;;;;;;33.00;27.33;;;;;;;;4695072;30;46254;-72
2022/12/06 15:20:15;;;;;;;;;40.67;34.00;;;;;;;;4703163;30;45349;-72
2022/12/06 15:22:45;;;;;;;;;36.33;34.00;;;;;;;;4702975;30;45492;-71
2022/12/06 15:25:12;;;;;;;;;26.33;26.33;;;;;;;;4695641;30;45407;-72
2022/12/06 15:27:37;;;;;;;;;38.67;26.33;;;;;;;;4692941;30;46155;-72
2022/12/06 15:30:03;;;;;;;;;33.33;26.00;;;;;;;;4696062;30;45358;-70
2022/12/06 15:32:28;;;;;;;;;30.00;25.00;;;;;;;;4701620;30;45842;-70
2022/12/06 15:34:53;;;;;;;;;37.67;30.67;;;;;;;;4702739;30;45655;-70
2022/12/06 15:37:19;;;;;;;;;39.33;26.67;;;;;;;;4703004;30;46440;-70
2022/12/06 15:39:44;;;;;;;;;31.00;25.33;;;;;;;;4696936;30;45805;-70
2022/12/06 15:42:17;;;;;;;;;30.00;30.00;;;;;;;;4701816;30;45684;-70
2022/12/06 15:44:43;;;;;;;;;27.00;26.33;;;;;;;;4702802;30;45640;-70
2022/12/06 15:47:09;;;;;;;;;28.33;25.00;;;;;;;;4702616;30;45322;-70
2022/12/06 15:49:34;;;;;;;;;34.00;27.67;;;;;;;;4701644;30;45171;-71
2022/12/06 15:52:00;;;;;;;;;33.33;28.33;;;;;;;;4697339;30;45444;-71
2022/12/06 15:54:25;;;;;;;;;27.33;24.00;;;;;;;;4696746;30;45278;-71
2022/12/06 15:56:51;;;;;;;;;36.33;25.00;;;;;;;;4695041;30;46937;-72
2022/12/06 15:59:17;;;;;;;;;24.67;21.00;;;;;;;;4691521;30;46687;-71
2022/12/06 16:01:49;;;;;;;;;24.00;22.67;;;;;;;;4702530;30;45422;-71
2022/12/06 16:04:19;;;;;;;;;25.33;20.67;;;;;;;;4701703;30;45602;-70
2022/12/06 16:06:45;;;;;;;;;27.67;23.00;;;;;;;;4702081;30;46430;-71
2022/12/06 16:09:11;;;;;;;;;32.33;26.67;;;;;;;;4702205;30;45442;-71
2022/12/06 16:11:36;;;;;;;;;24.33;23.67;;;;;;;;4702163;30;45459;-70
2022/12/06 16:14:02;;;;;;;;;28.67;25.33;;;;;;;;4702028;30;45364;-71
2022/12/06 16:16:27;;;;;;;;;26.00;25.00;;;;;;;;4701311;30;46188;-71
2022/12/06 16:18:54;;;;;;;;;23.33;21.67;;;;;;;;4702412;30;45463;-70
2022/12/06 16:21:23;;;;;;;;;32.67;22.00;;;;;;;;4694749;30;45512;-71
2022/12/06 16:24:01;;;;;;;;;31.33;24.00;;;;;;;;4698348;30;45559;-71
2022/12/06 16:26:30;;;;;;;;;25.00;19.67;;;;;;;;4695196;30;46199;-71
2022/12/06 16:28:56;;;;;;;;;18.67;17.67;;;;;;;;4700868;30;46527;-71
2022/12/06 16:31:21;;;;;;;;;29.33;25.67;;;;;;;;4702119;30;45400;-72
2022/12/06 16:33:46;;;;;;;;;32.67;19.67;;;;;;;;4702066;30;45539;-71
2022/12/06 16:36:14;;;;;;;;;24.67;23.00;;;;;;;;4701868;30;45385;-71
2022/12/06 16:38:40;;;;;;;;;28.33;24.00;;;;;;;;4701405;30;45712;-71
2022/12/06 16:41:06;;;;;;;;;36.33;21.67;;;;;;;;4693929;30;45543;-71
2022/12/06 16:43:31;;;;;;;;;27.00;23.33;;;;;;;;4701128;30;45680;-71
2022/12/06 16:45:56;;;;;;;;;29.00;24.00;;;;;;;;4699886;30;46247;-71
2022/12/06 16:48:22;;;;;;;;;21.00;16.67;;;;;;;;4698415;30;45247;-72
2022/12/06 16:50:47;;;;;;;;;34.33;24.33;;;;;;;;4701148;30;45277;-72
2022/12/06 16:53:16;;;;;;;;;25.00;23.00;;;;;;;;4701495;30;45493;-73
2022/12/06 16:55:42;;;;;;;;;28.67;23.67;;;;;;;;4700187;30;46187;-73
2022/12/06 16:58:07;;;;;;;;;29.33;22.33;;;;;;;;4701773;30;45483;-71
2022/12/06 17:00:32;;;;;;;;;28.00;19.33;;;;;;;;4699401;30;45335;-70
2022/12/06 17:02:58;;;;;;;;;33.33;26.00;;;;;;;;4695579;30;46093;-71
2022/12/06 17:05:24;;;;;;;;;27.00;22.33;;;;;;;;4701820;30;46080;-71
2022/12/06 17:07:49;;;;;;;;;29.00;23.33;;;;;;;;4702453;30;45292;-71
2022/12/06 17:10:15;;;;;;;;;22.00;19.00;;;;;;;;4701773;30;45487;-71
2022/12/06 17:12:41;;;;;;;;;26.67;22.00;;;;;;;;4702041;30;45582;-71
2022/12/06 17:15:08;;;;;;;;;28.00;26.33;;;;;;;;4700635;30;47095;-71
2022/12/06 17:17:33;;;;;;;;;26.00;24.00;;;;;;;;4694993;30;45476;-73
2022/12/06 17:19:59;;;;;;;;;27.67;25.33;;;;;;;;4698565;30;45490;-72
2022/12/06 17:22:24;;;;;;;;;21.67;20.67;;;;;;;;4698550;30;45482;-71
2022/12/06 17:24:49;;;;;;;;;33.33;27.67;;;;;;;;4698629;30;46218;-70
2022/12/06 17:27:15;;;;;;;;;32.67;27.33;;;;;;;;4700866;30;45402;-71
2022/12/06 17:29:41;;;;;;;;;33.00;27.00;;;;;;;;4699315;30;45440;-71
2022/12/06 17:32:06;;;;;;;;;31.00;22.00;;;;;;;;4700501;30;45403;-70
2022/12/06 17:34:31;;;;;;;;;36.67;28.00;;;;;;;;4698389;30;46240;-71
2022/12/06 17:36:57;;;;;;;;;29.67;23.67;;;;;;;;4677148;30;45464;-71
2022/12/06 17:39:23;;;;;;;;;30.67;25.67;;;;;;;;4700508;30;45389;-72
2022/12/06 17:44:33;;;;;;;;;31.00;25.67;;;;;;;;4694242;30;45559;-72
2022/12/06 17:46:58;;;;;;;;;41.00;32.00;;;;;;;;4688856;30;45362;-72
2022/12/06 17:49:24;;;;;;;;;40.33;31.00;;;;;;;;4701407;30;45498;-72
2022/12/06 17:51:49;;;;;;;;;39.00;32.67;;;;;;;;4700312;30;45502;-72
2022/12/06 17:54:15;;;;;;;;;36.50;29.50;;;;;;;;4697838;30;46329;-71
2022/12/06 17:56:42;;;;;;;;;49.75;35.25;;;;;;;;4700820;30;45384;-73
2022/12/06 17:59:09;;;;;;;;;31.25;27.75;;;;;;;;4691910;30;45683;-71
2022/12/06 18:01:35;;;;;;;;;32.67;29.67;;;;;;;;4696202;30;45877;-72
2022/12/06 18:04:01;;;;;;;;;31.25;29.75;;;;;;;;4697607;30;46358;-72
2022/12/06 18:06:27;;;;;;;;;34.67;31.00;;;;;;;;4700168;30;45457;-72
2022/12/06 18:08:52;;;;;;;;;37.33;31.33;;;;;;;;4695730;30;45372;-72
2022/12/06 18:11:17;;;;;;;;;34.33;29.00;;;;;;;;4700770;30;45379;-72
2022/12/06 18:13:43;;;;;;;;;42.75;36.00;;;;;;;;4692447;30;45735;-72
2022/12/06 18:16:15;;;;;;;;;33.25;31.50;;;;;;;;4698858;30;45413;-71
2022/12/06 18:18:40;;;;;;;;;43.00;34.25;;;;;;;;4701833;30;45234;-72
2022/12/06 18:21:09;;;;;;;;;35.25;30.75;;;;;;;;4701524;30;45553;-72
2022/12/06 18:23:35;;;;;;;;;40.00;34.50;;;;;;;;4700209;30;45330;-72
2022/12/06 18:26:00;;;;;;;;;46.50;38.00;;;;;;;;4700869;30;45503;-72
2022/12/06 18:28:25;;;;;;;;;55.00;45.50;;;;;;;;4701384;30;45440;-72
2022/12/06 18:30:51;;;;;;;;;57.75;47.75;;;;;;;;4693476;30;45417;-72
2022/12/06 18:33:16;;;;;;;;;65.50;49.75;;;;;;;;4692632;30;45606;-72
2022/12/06 18:35:41;;;;;;;;;71.50;54.00;;;;;;;;4701033;30;45537;-72
2022/12/06 18:38:06;;;;;;;;;63.50;50.25;;;;;;;;4701612;30;45253;-72
2022/12/06 18:40:32;;;;;;;;;60.50;49.25;;;;;;;;4687434;30;45531;-72
2022/12/06 18:42:57;;;;;;;;;59.25;46.00;;;;;;;;4703709;30;45463;-71
2022/12/06 18:45:22;;;;;;;;;41.75;38.00;;;;;;;;4704078;30;45293;-72
2022/12/06 18:47:48;;;;;;;;;52.50;42.75;;;;;;;;4704608;30;45378;-73
2022/12/06 18:50:13;;;;;;;;;65.00;42.75;;;;;;;;4703336;30;45535;-73
2022/12/06 18:52:39;;;;;;;;;58.25;45.25;;;;;;;;4703103;30;45329;-72
2022/12/06 18:55:04;;;;;;;;;56.25;42.50;;;;;;;;4703370;30;45459;-73
2022/12/06 18:57:34;;;;;;;;;46.50;40.75;;;;;;;;4706160;30;45530;-72
2022/12/06 18:59:59;;;;;;;;;44.75;38.00;;;;;;;;4701241;30;45682;-72
2022/12/06 19:02:25;;;;;;;;;59.75;43.50;;;;;;;;4693851;30;46107;-72
2022/12/06 19:04:50;;;;;;;;;66.25;50.25;;;;;;;;4700979;30;45403;-72
2022/12/06 19:07:15;;;;;;;;;60.00;45.50;;;;;;;;4701745;30;45395;-72
2022/12/06 19:09:40;;;;;;;;;49.50;38.50;;;;;;;;4701932;30;45363;-72
2022/12/06 19:12:05;;;;;;;;;50.25;41.75;;;;;;;;4701080;30;45440;-72
2022/12/06 19:14:31;;;;;;;;;40.50;36.75;;;;;;;;4698186;30;45457;-72
2022/12/06 19:16:56;;;;;;;;;55.25;38.25;;;;;;;;4698436;30;45449;-72
2022/12/06 19:19:23;;;;;;;;;43.25;37.25;;;;;;;;4702793;30;45573;-69
2022/12/06 19:21:49;;;;;;;;;42.25;37.00;;;;;;;;4699240;30;46831;-69
2022/12/06 19:24:16;;;;;;;;;45.25;39.00;;;;;;;;4699859;30;45459;-69
2022/12/06 19:26:42;;;;;;;;;51.50;40.00;;;;;;;;4703835;30;45376;-69
2022/12/06 19:29:07;;;;;;;;;56.50;39.50;;;;;;;;4699781;30;45428;-69
2022/12/06 19:31:32;;;;;;;;;43.75;37.25;;;;;;;;4702970;30;46096;-69
2022/12/06 19:33:58;;;;;;;;;49.25;40.00;;;;;;;;4705442;30;45548;-70
2022/12/06 19:36:28;;;;;;;;;51.75;39.50;;;;;;;;4703285;30;45624;-69
2022/12/06 19:38:57;;;;;;;;;57.75;43.50;;;;;;;;4708204;30;45624;-69
2022/12/06 19:41:22;;;;;;;;;50.75;39.00;;;;;;;;4711274;30;46019;-69
2022/12/06 19:46:32;;;;;;;;;48.50;37.75;;;;;;;;4693073;30;45313;-68
2022/12/06 19:48:58;;;;;;;;;51.25;38.00;;;;;;;;4706134;30;45293;-68
2022/12/06 19:51:25;;;;;;;;;55.75;38.50;;;;;;;;4693028;30;46061;-69
2022/12/06 19:53:51;;;;;;;;;53.00;42.00;;;;;;;;4702392;30;45352;-68
2022/12/06 19:56:18;;;;;;;;;45.25;34.75;;;;;;;;4693954;30;45336;-68
2022/12/06 19:58:44;;;;;;;;;57.75;40.50;;;;;;;;4705729;30;45409;-69
2022/12/06 20:01:12;;;;;;;;;55.00;42.25;;;;;;;;4702924;30;45391;-68
2022/12/06 20:03:37;;;;;;;;;44.25;37.50;;;;;;;;4705880;30;45493;-68
2022/12/06 20:06:04;;;;;;;;;37.00;36.00;;;;;;;;4695216;30;45765;-68
2022/12/06 20:08:29;;;;;;;;;46.25;38.00;;;;;;;;4694830;30;45452;-68
2022/12/06 20:10:55;;;;;;;;;57.25;46.50;;;;;;;;4704628;30;45988;-69
2022/12/06 20:13:22;;;;;;;;;64.25;46.00;;;;;;;;4704384;30;45653;-68
2022/12/06 20:15:47;;;;;;;;;65.00;49.50;;;;;;;;4704356;30;45499;-69
2022/12/06 20:18:12;;;;;;;;;65.50;51.50;;;;;;;;4705356;30;45384;-68